Latest Weather Observations for Mullion

IDN60901

Issued at 11:32 pm EST Friday 16 April 2021 (issued every 10 minutes, with the page automatically refreshed every 10 minutes)

About weather observations | Map of Canberra area stations | Latest observations for Canberra area | Other Formats
Station Details ID: 250070 Name: MULLION (PCS) Lat: -35.11 Lon: 148.85 Height: 750.0 m

Portable automatic weather stations (PAWS) are operated by other organisations, such as Fire and Emergency Services, and are included here by agreement. Portable stations may be deployed to a location for a short period and their location may be subject to change without notice. Wind observations from these stations are provided from heights of either three (3) or ten (10) metres above ground level (AGL).

Data from the previous 72 hours. | See also: Recent months for locations in Aust Capital Territory
Date/Time
EST
Temp
°C
App
Temp
°C
Dew
Point
°C
Rel
Hum
%
Delta-T
°C
Wind Press
QNH
hPa
Press
MSL
hPa
Rain since
9am
mm
Dir  Spd
km/h
Gust
km/h
Spd
kts
Gust
kts
16/11:20pm 8.1 2.8 6.8 91 0.6 SSE 24 26 13 14 1024.9 - 0.0
16/11:10pm 8.2 2.5 6.7 90 0.7 SSE 26 30 14 16 1024.9 - 0.0
16/11:00pm 8.5 2.8 6.6 88 0.9 SSE 26 30 14 16 1024.8 - 0.0
16/10:50pm 8.6 3.3 6.6 87 1.0 SE 24 28 13 15 1025.3 - 0.0
16/10:40pm 8.5 3.2 6.6 88 0.9 SE 24 24 13 13 1025.4 - 0.0
16/10:30pm 8.7 3.4 6.6 87 1.0 SE 24 30 13 16 1025.2 - 0.0
16/10:20pm 8.5 2.8 6.6 88 0.9 SSE 26 28 14 15 1025.3 - 0.0
16/10:10pm 8.3 2.6 6.7 90 0.8 SSE 26 28 14 15 1025.4 - 0.0
16/10:00pm 8.4 2.3 6.7 89 0.8 SE 28 28 15 15 1025.3 - 0.0
16/09:50pm 8.5 2.8 6.7 88 0.9 SE 26 28 14 15 1025.3 - 0.0
16/09:40pm 8.3 3.0 7.0 91 0.6 SE 24 26 13 14 1025.3 - 0.0
16/09:30pm 8.6 2.6 6.9 89 0.8 SE 28 30 15 16 1025.2 - 0.0
16/09:20pm 8.6 2.3 7.2 91 0.7 SE 30 32 16 17 1025.0 - 0.0
16/09:10pm 8.8 2.9 7.3 90 0.7 SE 28 30 15 16 1025.0 - 0.0
16/09:00pm 8.9 4.1 7.5 91 0.7 SE 22 22 12 12 1025.2 - 0.0
16/08:50pm 9.2 4.8 7.5 89 0.8 ESE 20 20 11 11 1025.2 - 0.0
16/08:40pm 9.4 4.2 7.4 87 1.0 SE 24 26 13 14 1025.1 - 0.0
16/08:30pm 9.4 3.9 7.4 87 1.0 SE 26 26 14 14 1024.8 - 0.0
16/08:20pm 9.4 4.2 7.4 87 1.0 SE 24 26 13 14 1024.7 - 0.0
16/08:10pm 9.7 4.5 7.4 85 1.1 ESE 24 28 13 15 1024.6 - 0.0
16/08:00pm 9.9 4.8 7.5 85 1.2 SE 24 28 13 15 1024.5 - 0.0
16/07:50pm 10.3 5.5 7.2 81 1.5 SE 22 26 12 14 1024.5 - 0.0
16/07:40pm 10.4 5.8 6.7 78 1.8 SE 20 26 11 14 1024.4 - 0.0
16/07:30pm 10.7 5.8 7.1 78 1.8 ESE 22 24 12 13 1024.1 - 0.0
16/07:20pm 11.1 6.2 5.2 67 2.8 E 20 26 11 14 1024.1 - 0.0
16/07:10pm 14.0 11.7 4.6 53 4.5 NW 6 11 3 6 1024.0 - 0.0
16/07:00pm 14.2 11.8 4.2 51 4.8 NW 6 9 3 5 1023.8 - 0.0
16/06:50pm 14.4 11.9 3.5 48 5.2 NNW 6 6 3 3 1023.8 - 0.0
16/06:40pm 14.4 11.7 3.8 49 5.0 NNW 7 7 4 4 1023.7 - 0.0
16/06:30pm 14.5 11.8 3.6 48 5.2 NNW 7 7 4 4 1023.5 - 0.0
16/06:20pm 14.6 11.9 3.6 47 5.2 NW 7 9 4 5 1023.4 - 0.0
16/06:10pm 14.5 11.5 4.1 49 5.0 NW 9 9 5 5 1023.3 - 0.0
16/06:00pm 14.5 11.4 3.8 48 5.1 NW 9 9 5 5 1023.1 - 0.0
16/05:50pm 14.5 11.5 4.0 49 5.0 NW 9 11 5 6 1022.9 - 0.0
16/05:40pm 14.8 11.9 4.4 49 5.0 NW 9 9 5 5 1022.8 - 0.0
16/05:30pm 15.3 12.8 4.7 49 5.2 NW 7 9 4 5 1022.7 - 0.0
16/05:20pm 15.6 12.7 4.6 48 5.4 NNW 9 9 5 5 1022.6 - 0.0
16/05:10pm 15.8 12.9 4.7 47 5.4 NNW 9 9 5 5 1022.5 - 0.0
16/05:00pm 16.0 13.1 4.6 46 5.6 N 9 13 5 7 1022.4 - 0.0
16/04:50pm 16.2 12.9 4.8 46 5.6 N 11 11 6 6 1022.4 - 0.0
16/04:40pm 16.1 13.3 5.0 47 5.5 N 9 13 5 7 1022.4 - 0.0
16/04:30pm 16.1 13.2 4.5 46 5.7 NNE 9 11 5 6 1022.3 - 0.0
16/04:20pm 16.3 13.4 4.4 45 5.8 NNE 9 11 5 6 1022.3 - 0.0
16/04:10pm 16.5 14.0 4.9 46 5.7 NNE 7 11 4 6 1022.3 - 0.0
16/04:00pm 16.4 13.6 5.2 47 5.6 NNE 9 11 5 6 1022.4 - 0.0
16/03:50pm 16.2 12.6 5.0 47 5.5 NNE 13 19 7 10 1022.2 - 0.0
16/03:40pm 16.3 13.0 4.6 46 5.7 NNE 11 17 6 9 1022.2 - 0.0
16/03:30pm 16.4 12.9 5.6 49 5.4 NE 13 17 7 9 1022.2 - 0.0
16/03:20pm 16.5 13.3 5.0 46 5.7 NE 11 15 6 8 1022.2 - 0.0
16/03:10pm 16.5 13.3 5.3 47 5.6 NNE 11 13 6 7 1022.2 - 0.0
16/03:00pm 16.2 12.6 4.9 47 5.6 NE 13 19 7 10 1022.2 - 0.0
16/02:50pm 16.3 12.8 5.3 48 5.5 NNE 13 17 7 9 1022.1 - 0.0
16/02:40pm 16.5 13.0 5.4 48 5.5 NE 13 19 7 10 1022.0 - 0.0
16/02:30pm 16.4 12.9 5.6 49 5.4 NE 13 15 7 8 1022.1 - 0.0
16/02:20pm 16.2 12.4 5.7 49 5.3 NE 15 20 8 11 1022.0 - 0.0
16/02:10pm 17.0 14.1 6.7 50 5.3 ENE 11 15 6 8 1022.1 - 0.0
16/02:00pm 16.6 13.7 6.6 51 5.1 ENE 11 17 6 9 1022.1 - 0.0
16/01:50pm 16.5 12.7 5.7 49 5.4 ENE 15 19 8 10 1022.0 - 0.0
16/01:40pm 17.1 15.0 6.5 49 5.4 NE 7 13 4 7 1022.1 - 0.0
16/01:30pm 17.2 14.5 5.8 47 5.8 NE 9 13 5 7 1022.1 - 0.0
16/01:20pm 16.9 15.0 6.7 51 5.2 NE 6 9 3 5 1022.1 - 0.0
16/01:10pm 16.6 14.2 5.4 47 5.6 N 7 11 4 6 1022.2 - 0.0
16/01:00pm 16.5 14.0 6.6 52 5.1 ENE 9 15 5 8 1022.3 - 0.0
16/12:50pm 16.8 14.2 6.3 50 5.3 ENE 9 13 5 7 1022.5 - 0.0
16/12:40pm 17.0 14.0 6.1 48 5.5 ENE 11 11 6 6 1022.5 - 0.0
16/12:30pm 16.1 14.1 7.2 55 4.6 ENE 7 11 4 6 1022.7 - 0.0
16/12:20pm 15.5 12.8 5.6 51 4.9 ENE 9 13 5 7 1022.8 - 0.0
16/12:10pm 15.7 12.6 7.1 56 4.4 NE 13 15 7 8 1022.9 - 0.0
16/12:00pm 16.6 13.6 5.9 49 5.4 NE 11 17 6 9 1023.0 - 0.0
16/11:50am 16.5 14.5 6.3 51 5.2 NE 6 7 3 4 1023.2 - 0.0
16/11:40am 15.9 13.9 6.3 53 4.9 NNE 6 9 3 5 1023.2 - 0.0
16/11:30am 15.6 14.0 6.5 54 4.6 NNW 4 7 2 4 1023.3 - 0.0
16/11:20am 15.0 13.2 5.2 52 4.8 N 4 9 2 5 1023.3 - 0.0
16/11:10am 14.8 12.7 6.6 58 4.1 NNW 7 9 4 5 1023.5 - 0.0
16/11:00am 14.6 12.3 5.8 55 4.4 NW 7 11 4 6 1023.5 - 0.0
16/10:50am 15.3 13.4 6.8 57 4.3 NE 6 9 3 5 1023.7 - 0.0
16/10:40am 14.4 12.2 6.1 57 4.1 NNW 7 9 4 5 1023.7 - 0.0
16/10:30am 13.5 11.4 6.8 64 3.4 NNW 7 11 4 6 1023.7 - 0.0
16/10:20am 13.0 11.0 7.2 68 2.9 NNW 7 9 4 5 1023.6 - 0.0
16/10:10am 12.9 10.7 6.4 64 3.2 NW 7 11 4 6 1023.6 - 0.0
16/10:00am 12.8 10.7 6.5 65 3.1 NNW 7 9 4 5 1023.6 - 0.0
16/09:50am 13.0 11.2 7.0 67 3.0 NNW 6 7 3 4 1023.6 - 0.0
16/09:40am 13.4 12.0 7.1 65 3.2 N 4 6 2 3 1023.6 - 0.0
16/09:30am 12.7 11.5 6.6 66 3.0 N 2 4 1 2 1023.7 - 0.0
16/09:20am 11.5 10.0 6.8 73 2.3 E 4 6 2 3 1023.6 - 0.0
16/09:10am 10.8 9.4 7.2 78 1.8 W 4 7 2 4 1023.6 - 0.0
16/09:00am 10.1 8.0 5.9 75 2.0 N 6 7 3 4 1023.6 - 0.0
16/08:50am 9.3 7.0 5.5 77 1.8 WNW 7 7 4 4 1023.4 - 0.0
16/08:40am 9.1 6.8 5.6 79 1.7 WNW 7 9 4 5 1023.5 - 0.0
16/08:30am 9.3 6.9 5.1 75 2.0 WNW 7 7 4 4 1023.2 - 0.0
16/08:20am 9.6 7.8 5.2 74 2.1 WNW 4 6 2 3 1023.1 - 0.0
16/08:10am 9.6 8.1 5.1 73 2.1 W 2 4 1 2 1023.0 - 0.0
16/08:00am 9.1 6.8 4.6 73 2.1 WNW 6 9 3 5 1022.8 - 0.0
16/07:50am 8.3 5.0 4.6 77 1.7 WNW 11 13 6 7 1022.6 - 0.0
16/07:40am 8.3 5.1 4.9 79 1.6 WNW 11 13 6 7 1022.5 - 0.0
16/07:30am 8.4 5.5 4.4 76 1.8 W 9 11 5 6 1022.1 - 0.0
16/07:20am 8.7 5.7 4.1 73 2.1 W 9 9 5 5 1022.1 - 0.0
16/07:10am 8.7 6.1 4.0 72 2.1 W 7 9 4 5 1021.9 - 0.0
16/07:00am 8.7 6.3 4.2 73 2.1 W 6 7 3 4 1021.8 - 0.0
16/06:50am 9.5 7.4 4.0 68 2.5 SW 4 4 2 2 1021.6 - 0.0
16/06:40am 9.1 6.6 3.8 69 2.4 SSW 6 7 3 4 1021.4 - 0.0
16/06:30am 8.2 5.2 4.0 75 1.9 SW 9 11 5 6 1021.3 - 0.0
16/06:20am 7.5 3.8 4.3 80 1.5 W 13 15 7 8 1021.3 - 0.0
16/06:10am 7.2 3.1 4.4 82 1.3 W 15 17 8 9 1021.1 - 0.0
16/06:00am 6.7 3.0 4.6 86 1.0 W 13 15 7 8 1021.1 - 0.0
16/05:50am 7.0 3.3 4.7 85 1.1 W 13 13 7 7 1021.0 - 0.0
16/05:40am 7.4 4.0 4.1 79 1.5 W 11 13 6 7 1021.0 - 0.0
16/05:30am 7.8 4.8 4.1 77 1.7 WNW 9 11 5 6 1020.8 - 0.0
16/05:20am 8.5 6.1 4.1 74 2.0 W 6 9 3 5 1020.6 - 0.0
16/05:10am 8.8 6.7 3.8 71 2.3 NNW 4 7 2 4 1020.5 - 0.0
16/05:00am 8.7 7.3 3.8 71 2.2 CALM 0 2 0 1 1020.5 - 0.0
16/04:50am 9.0 6.3 3.8 70 2.4 W 7 9 4 5 1020.3 - 0.0
16/04:40am 9.4 6.0 3.8 68 2.6 SW 11 19 6 10 1020.3 - 0.0
16/04:30am 9.4 5.2 3.6 67 2.6 WSW 15 20 8 11 1020.2 - 0.0
16/04:20am 9.8 4.2 3.4 64 2.9 W 22 26 12 14 1020.1 - 0.0
16/04:10am 9.9 4.3 3.6 65 2.9 W 22 28 12 15 1020.1 - 0.0
16/04:00am 9.4 4.4 3.5 66 2.7 W 19 22 10 12 1020.3 - 0.0
16/03:50am 9.7 4.4 3.2 64 2.9 W 20 22 11 12 1020.0 - 0.0
16/03:40am 9.8 4.6 3.6 65 2.8 W 20 20 11 11 1019.7 - 0.0
16/03:30am 9.2 4.2 3.5 67 2.6 W 19 20 10 11 1019.7 - 0.0
16/03:20am 8.5 3.5 3.8 72 2.1 W 19 19 10 10 1019.7 - 0.0
16/03:10am 8.1 3.6 4.1 76 1.8 W 17 19 9 10 1019.8 - 0.0
16/03:00am 8.0 3.5 4.1 76 1.8 WNW 17 17 9 9 1019.9 - 0.0
16/02:50am 7.8 3.7 4.4 79 1.6 WNW 15 17 8 9 1019.9 - 0.0
16/02:40am 8.0 3.5 4.4 78 1.6 W 17 19 9 10 1019.9 - 0.0
16/02:30am 8.3 3.8 4.1 75 1.9 W 17 19 9 10 1019.7 - 0.0
16/02:20am 8.2 4.1 4.2 76 1.8 WNW 15 15 8 8 1019.7 - 0.0
16/02:10am 8.3 4.2 4.2 75 1.9 WNW 15 17 8 9 1019.9 - 0.0
16/02:00am 8.5 4.8 4.2 74 2.0 WNW 13 15 7 8 1019.9 - 0.0
16/01:50am 8.4 4.6 4.1 74 2.0 WNW 13 15 7 8 1020.0 - 0.0
16/01:40am 8.4 4.3 4.2 75 1.9 WNW 15 15 8 8 1020.0 - 0.0
16/01:30am 8.6 4.5 4.1 73 2.1 WNW 15 15 8 8 1020.1 - 0.0
16/01:20am 9.3 5.5 3.8 68 2.5 W 13 15 7 8 1020.0 - 0.0
16/01:10am 9.9 5.8 4.1 67 2.7 W 15 17 8 9 1019.9 - 0.0
16/01:00am 10.3 6.1 3.7 63 3.0 W 15 19 8 10 1019.9 - 0.0
16/12:50am 10.1 5.8 3.3 62 3.1 W 15 17 8 9 1020.0 - 0.0
16/12:40am 9.9 5.7 3.8 66 2.8 W 15 17 8 9 1020.2 - 0.0
16/12:30am 10.3 6.1 3.8 64 3.0 W 15 17 8 9 1020.2 - 0.0
16/12:20am 10.2 6.0 3.7 64 3.0 W 15 17 8 9 1020.0 - 0.0
16/12:10am 10.1 5.9 3.7 64 2.9 W 15 19 8 10 1020.0 - 0.0
16/12:00am 10.3 6.5 3.8 64 3.0 W 13 13 7 7 1020.0 - 0.0
 
Date/Time
EST
Temp
°C
App
Temp
°C
Dew
Point
°C
Rel
Hum
%
Delta-T
°C
Wind Press
QNH
hPa
Press
MSL
hPa
Rain since
9am
mm
Dir  Spd
km/h
Gust
km/h
Spd
kts
Gust
kts
15/11:50pm 10.5 6.3 3.7 63 3.1 WSW 15 17 8 9 1020.0 - 0.0
15/11:40pm 10.5 5.9 3.7 63 3.1 W 17 19 9 10 1020.1 - 0.0
15/11:30pm 10.4 6.2 3.6 63 3.1 WSW 15 17 8 9 1020.0 - 0.0
15/11:20pm 10.5 5.9 3.7 63 3.1 WSW 17 22 9 12 1019.9 - 0.0
15/11:10pm 10.3 5.7 3.7 63 3.0 W 17 19 9 10 1019.8 - 0.0
15/11:00pm 10.4 6.2 3.9 64 3.0 W 15 17 8 9 1019.7 - 0.0
15/10:50pm 10.5 5.3 3.3 61 3.3 W 20 26 11 14 1019.8 - 0.0
15/10:40pm 10.6 5.4 3.7 62 3.2 W 20 24 11 13 1020.0 - 0.0
15/10:30pm 10.8 5.7 3.9 62 3.2 W 20 24 11 13 1019.9 - 0.0
15/10:20pm 11.0 4.7 3.5 60 3.5 W 26 30 14 16 1019.8 - 0.0
15/10:10pm 10.5 5.3 3.7 63 3.1 W 20 24 11 13 1019.8 - 0.0
15/10:00pm 10.9 5.0 4.0 62 3.2 W 24 30 13 16 1019.8 - 0.0
15/09:50pm 11.1 5.2 4.0 61 3.3 W 24 28 13 15 1019.8 - 0.0
15/09:40pm 10.9 4.2 3.9 62 3.2 W 28 33 15 18 1019.5 - 0.0
15/09:30pm 10.9 4.3 4.0 62 3.2 W 28 32 15 17 1019.6 - 0.0
15/09:20pm 10.8 4.5 4.0 63 3.2 WSW 26 32 14 17 1019.4 - 0.0
15/09:10pm 10.8 4.7 4.6 65 2.9 W 26 30 14 16 1019.5 - 0.0
15/09:00pm 11.2 3.9 4.3 62 3.2 W 32 37 17 20 1019.5 - 0.0
15/08:50pm 11.4 3.9 4.3 61 3.3 W 33 35 18 19 1019.4 - 0.0
15/08:40pm 11.4 4.0 4.1 61 3.4 W 32 37 17 20 1019.3 - 0.0
15/08:30pm 11.6 3.7 4.5 61 3.4 W 35 39 19 21 1019.2 - 0.0
15/08:20pm 11.4 4.5 4.6 63 3.2 W 30 33 16 18 1019.0 - 0.0
15/08:10pm 11.4 5.3 4.9 64 3.1 W 26 30 14 16 1019.0 - 0.0
15/08:00pm 11.6 4.7 4.8 63 3.2 W 30 35 16 19 1019.0 - 0.0
15/07:50pm 11.6 4.2 4.8 63 3.2 W 33 39 18 21 1019.0 - 0.0
15/07:40pm 11.9 4.7 5.0 62 3.3 W 32 39 17 21 1018.4 - 0.0
15/07:30pm 11.9 4.7 4.8 62 3.4 W 32 41 17 22 1018.5 - 0.0
15/07:20pm 11.9 5.4 4.9 62 3.3 W 28 32 15 17 1018.3 - 0.0
15/07:10pm 12.1 5.2 4.8 61 3.5 W 30 33 16 18 1018.2 - 0.0
15/07:00pm 12.2 5.3 4.8 60 3.5 W 30 35 16 19 1018.1 - 0.0
15/06:50pm 12.3 5.0 4.6 59 3.7 W 32 37 17 20 1017.7 - 0.0
15/06:40pm 12.2 6.1 4.7 60 3.6 W 26 35 14 19 1018.0 - 0.0
15/06:30pm 12.5 6.0 4.8 59 3.7 W 28 32 15 17 1017.9 - 0.0
15/06:20pm 12.7 7.0 4.8 58 3.8 WNW 24 30 13 16 1017.5 - 0.0
15/06:10pm 12.8 6.3 4.7 58 3.9 W 28 35 15 19 1017.4 - 0.0
15/06:00pm 13.0 6.1 4.7 57 4.0 WNW 30 35 16 19 1017.3 - 0.0
15/05:50pm 13.2 5.4 4.8 56 4.0 W 35 39 19 21 1017.2 - 0.0
15/05:40pm 13.4 5.6 4.7 55 4.2 WNW 35 41 19 22 1016.9 - 0.0
15/05:30pm 13.4 5.6 4.9 56 4.1 WNW 35 44 19 24 1017.0 - 0.0
15/05:20pm 13.6 6.3 5.3 57 4.1 WNW 33 41 18 22 1017.0 - 0.0
15/05:10pm 13.9 6.5 5.0 55 4.3 WNW 33 41 18 22 1016.5 - 0.0
15/05:00pm 14.2 6.0 5.0 54 4.5 WNW 37 43 20 23 1017.1 - 0.0
15/04:50pm 14.8 8.8 5.3 53 4.7 WNW 26 32 14 17 1016.9 - 0.0
15/04:40pm 14.7 7.3 5.2 53 4.7 WNW 33 41 18 22 1016.9 - 0.0
15/04:30pm 14.9 7.4 4.7 50 5.0 WNW 33 41 18 22 1016.7 - 0.0
15/04:20pm 14.9 6.3 4.9 51 4.9 WNW 39 43 21 23 1016.5 - 0.0
15/04:10pm 15.0 8.2 5.1 51 4.9 WNW 30 35 16 19 1016.2 - 0.0
15/04:00pm 14.9 7.7 5.1 52 4.8 WNW 32 39 17 21 1016.3 - 0.0
15/03:50pm 15.1 7.3 4.8 50 5.0 WNW 35 41 19 22 1016.3 - 0.0
15/03:40pm 15.2 7.7 4.5 49 5.2 WNW 33 39 18 21 1016.3 - 0.0
15/03:30pm 15.1 7.6 4.6 49 5.1 WNW 33 37 18 20 1016.5 - 0.0
15/03:20pm 15.4 8.1 4.6 48 5.3 WNW 32 37 17 20 1016.2 - 0.0
15/03:10pm 15.4 8.4 4.2 47 5.4 WNW 30 39 16 21 1016.1 - 0.0
15/03:00pm 14.9 6.7 4.5 49 5.0 WNW 37 46 20 25 1016.6 - 0.0
15/02:50pm 15.0 6.4 4.4 49 5.1 WNW 39 48 21 26 1016.5 - 0.0
15/02:40pm 15.0 6.8 5.0 51 4.9 WNW 37 44 20 24 1016.3 - 0.0
15/02:30pm 15.1 6.9 4.6 49 5.1 WNW 37 43 20 23 1016.4 - 0.0
15/02:20pm 15.2 7.8 4.9 50 5.0 W 33 41 18 22 1016.2 - 0.0
15/02:10pm 15.0 7.5 4.4 49 5.1 WNW 33 41 18 22 1016.4 - 0.0
15/02:00pm 14.3 5.8 5.2 54 4.5 WNW 39 46 21 25 1016.5 - 0.0
15/01:50pm 14.7 6.7 5.8 55 4.4 WNW 37 43 20 23 1016.4 - 0.0
15/01:40pm 14.8 6.6 5.0 52 4.8 WNW 37 52 20 28 1016.1 - 0.0
15/01:30pm 14.8 5.5 5.0 52 4.8 WNW 43 52 23 28 1016.8 - 0.0
15/01:20pm 15.0 7.1 4.5 49 5.1 WNW 35 46 19 25 1016.5 - 0.0
15/01:10pm 14.6 5.0 4.5 50 4.9 WNW 44 52 24 28 1016.8 - 0.0
15/01:00pm 14.6 5.0 4.2 49 5.0 WNW 44 50 24 27 1016.7 - 0.0
15/12:50pm 14.6 5.0 4.4 50 4.9 WNW 44 52 24 28 1017.5 - 0.0
15/12:40pm 14.5 5.5 4.3 50 4.9 WNW 41 56 22 30 1016.9 - 0.0
15/12:30pm 14.6 4.5 4.0 49 5.1 WNW 46 54 25 29 1017.3 - 0.0
15/12:20pm 14.5 4.0 3.7 48 5.1 WNW 48 52 26 28 1017.2 - 0.0
15/12:10pm 14.4 3.2 3.9 49 5.0 WNW 52 56 28 30 1017.3 - 0.0
15/12:00pm 14.7 5.0 3.8 48 5.2 WNW 44 52 24 28 1017.2 - 0.0
15/11:50am 14.0 5.6 3.6 49 4.9 WNW 37 48 20 26 1017.1 - 0.0
15/11:40am 14.4 7.0 4.1 50 4.9 WNW 32 39 17 21 1017.5 - 0.0
15/11:30am 14.6 6.4 4.5 50 4.9 WNW 37 46 20 25 1017.9 - 0.0
15/11:20am 14.4 6.9 4.2 50 4.9 W 33 37 18 20 1017.8 - 0.0
15/11:10am 14.1 4.1 4.1 51 4.8 W 46 52 25 28 1018.1 - 0.0
15/11:00am 14.5 4.8 3.7 48 5.1 W 44 56 24 30 1017.9 - 0.0
15/10:50am 14.3 4.7 4.5 51 4.7 W 44 54 24 29 1017.7 - 0.0
15/10:40am 13.9 4.3 4.5 53 4.5 W 44 52 24 28 1018.1 - 0.0
15/10:30am 13.8 3.8 4.5 53 4.5 W 46 52 25 28 1017.7 - 0.0
15/10:20am 14.3 6.7 4.1 50 4.9 W 33 43 18 23 1018.1 - 0.0
15/10:10am 14.1 7.3 5.1 54 4.4 W 30 39 16 21 1018.2 - 0.0
15/10:00am 14.0 6.5 4.6 53 4.5 W 33 43 18 23 1018.3 - 0.0
15/09:50am 13.6 5.7 4.1 52 4.5 W 35 43 19 23 1018.1 - 0.0
15/09:40am 13.4 4.6 3.7 52 4.6 W 39 46 21 25 1018.5 - 0.0
15/09:30am 13.3 5.9 3.9 53 4.4 W 32 39 17 21 1018.3 - 0.0
15/09:20am 13.5 6.9 4.4 54 4.4 W 28 41 15 22 1018.4 - 0.0
15/09:10am 13.5 6.0 4.2 53 4.4 W 33 41 18 22 1018.7 - 0.0
15/09:00am 13.7 7.0 3.8 51 4.7 W 28 33 15 18 1018.5 - 0.0
15/08:50am 13.5 7.3 4.2 53 4.4 WNW 26 32 14 17 1018.4 - 0.0
15/08:40am 13.0 7.7 5.0 58 3.9 WNW 22 26 12 14 1018.3 - 0.0
15/08:30am 12.6 7.3 5.1 60 3.6 WNW 22 28 12 15 1018.5 - 0.0
15/08:20am 12.6 7.6 4.7 58 3.8 WNW 20 28 11 15 1018.3 - 0.0
15/08:10am 12.1 6.9 3.6 56 4.0 W 20 24 11 13 1018.4 - 0.0
15/08:00am 11.8 6.6 5.4 65 3.1 W 22 28 12 15 1018.2 - 0.0
15/07:50am 11.7 6.1 5.2 64 3.1 W 24 30 13 16 1018.3 - 0.0
15/07:40am 12.0 5.0 3.9 57 3.8 W 30 41 16 22 1018.1 - 0.0
15/07:30am 11.9 4.8 3.7 57 3.8 W 30 43 16 23 1018.1 - 0.0
15/07:20am 10.9 4.9 3.3 59 3.5 W 24 35 13 19 1018.1 - 0.0
15/07:10am 10.6 4.7 4.1 64 3.0 W 24 32 13 17 1017.8 - 0.0
15/07:00am 10.8 5.4 4.6 65 2.9 WNW 22 33 12 18 1017.7 - 0.0
15/06:50am 10.9 5.8 3.3 59 3.5 WNW 19 33 10 18 1017.9 - 0.0
15/06:40am 10.7 6.2 4.4 65 2.9 WNW 17 22 9 12 1017.5 - 0.0
15/06:30am 10.7 6.0 3.4 60 3.3 NW 17 37 9 20 1017.5 - 0.0
15/06:20am 10.3 6.6 4.2 66 2.8 NW 13 19 7 10 1017.3 - 0.0
15/06:10am 10.4 6.6 4.0 64 3.0 NW 13 22 7 12 1017.3 - 0.0
15/06:00am 11.0 6.8 3.7 60 3.4 WNW 15 26 8 14 1017.2 - 0.0
15/05:50am 10.6 6.9 4.4 65 2.9 WNW 13 19 7 10 1017.2 - 0.0
15/05:40am 10.7 6.5 3.9 63 3.1 WNW 15 20 8 11 1017.2 - 0.0
15/05:30am 10.6 6.7 3.5 61 3.3 WNW 13 17 7 9 1017.1 - 0.0
15/05:20am 11.0 6.3 3.2 58 3.6 W 17 24 9 13 1017.1 - 0.0
15/05:10am 10.8 6.3 4.0 63 3.2 W 17 24 9 13 1017.2 - 0.0
15/05:00am 10.4 5.8 3.8 63 3.0 WNW 17 20 9 11 1017.0 - 0.0
15/04:50am 10.3 6.3 4.8 69 2.6 NW 15 20 8 11 1017.0 - 0.0
15/04:40am 10.4 5.3 4.0 64 3.0 WNW 20 24 11 13 1017.1 - 0.0
15/04:20am 10.4 5.6 4.6 67 2.7 WNW 19 24 10 13 1016.8 - 0.0
15/04:10am 10.2 5.3 3.9 65 2.9 NW 19 28 10 15 1016.9 - 0.0
15/04:00am 10.2 6.3 5.2 71 2.4 NW 15 20 8 11 1016.7 - 0.0
15/03:50am 10.6 6.6 4.8 67 2.7 NW 15 20 8 11 1016.8 - 0.0
15/03:40am 10.7 6.8 5.2 69 2.6 NW 15 19 8 10 1016.9 - 0.0
15/03:30am 10.9 7.3 4.8 66 2.9 NW 13 19 7 10 1016.9 - 0.0
15/03:20am 11.3 7.3 5.1 65 3.0 NW 15 19 8 10 1016.8 - 0.0
15/03:10am 11.5 7.1 5.0 64 3.1 WNW 17 22 9 12 1016.7 - 0.0
15/03:00am 11.6 6.7 5.2 65 3.1 WNW 20 32 11 17 1016.7 - 0.0
15/02:50am 11.4 6.5 5.2 65 3.0 W 20 32 11 17 1016.9 - 0.0
15/02:40am 11.1 6.4 5.3 67 2.8 WNW 19 22 10 12 1016.8 - 0.0
15/02:30am 11.0 5.3 5.1 67 2.8 WNW 24 28 13 15 1016.9 - 0.0
15/02:20am 10.5 5.3 5.7 72 2.3 WNW 22 26 12 14 1016.9 - 0.0
15/02:10am 10.4 5.6 5.8 73 2.2 WNW 20 28 11 15 1016.9 - 0.0
15/02:00am 11.2 5.3 5.7 69 2.7 WNW 26 32 14 17 1017.1 - 0.0
15/01:50am 11.4 5.4 5.1 65 3.0 WNW 26 28 14 15 1017.0 - 0.0
15/01:40am 11.8 5.0 5.3 64 3.1 WNW 30 33 16 18 1017.1 - 0.0
15/01:30am 11.8 4.6 5.0 63 3.3 WNW 32 33 17 18 1017.2 - 0.0
15/01:20am 12.2 5.0 4.8 60 3.5 WNW 32 37 17 20 1017.2 - 0.0
15/01:10am 12.1 5.2 4.8 61 3.5 WNW 30 32 16 17 1017.3 - 0.0
15/01:00am 12.2 5.7 4.5 59 3.7 WNW 28 32 15 17 1017.2 - 0.0
15/12:50am 12.1 5.7 5.2 62 3.3 NW 28 32 15 17 1017.4 - 0.0
15/12:40am 12.6 5.7 4.6 58 3.8 NW 30 32 16 17 1017.4 - 0.0
15/12:30am 12.6 6.5 5.0 60 3.7 NW 26 28 14 15 1017.4 - 0.0
15/12:20am 12.7 7.8 4.9 59 3.8 WNW 20 24 11 13 1017.6 - 0.0
15/12:10am 12.7 7.9 4.9 59 3.8 NW 19 22 10 12 1017.6 - 0.0
15/12:00am 13.0 8.0 4.7 57 4.0 WNW 20 26 11 14 1017.6 - 0.0
 
Date/Time
EST
Temp
°C
App
Temp
°C
Dew
Point
°C
Rel
Hum
%
Delta-T
°C
Wind Press
QNH
hPa
Press
MSL
hPa
Rain since
9am
mm
Dir  Spd
km/h
Gust
km/h
Spd
kts
Gust
kts
14/11:50pm 13.0 8.2 5.4 60 3.7 WNW 20 24 11 13 1017.7 - 0.0
14/11:40pm 13.1 8.2 5.3 59 3.8 WNW 20 32 11 17 1017.6 - 0.0
14/11:30pm 13.3 8.7 5.4 59 3.9 WNW 19 22 10 12 1017.6 - 0.0
14/11:20pm 12.9 8.1 4.9 58 3.9 WNW 19 22 10 12 1017.8 - 0.0
14/11:10pm 13.0 8.3 5.2 59 3.8 WNW 19 20 10 11 1017.8 - 0.0
14/11:00pm 13.0 8.4 6.5 64 3.2 WNW 20 24 11 13 1017.8 - 0.0
14/10:50pm 13.0 8.4 6.6 65 3.2 WNW 20 24 11 13 1017.8 - 0.0
14/10:40pm 13.0 8.0 6.5 64 3.2 NW 22 26 12 14 1017.9 - 0.0
14/10:30pm 13.1 8.5 6.4 64 3.3 NW 20 28 11 15 1017.9 - 0.0
14/10:20pm 13.0 9.0 6.5 64 3.2 NW 17 19 9 10 1017.9 - 0.0
14/10:10pm 13.2 9.1 6.4 63 3.4 NW 17 20 9 11 1018.1 - 0.0
14/10:00pm 13.3 9.3 6.5 63 3.4 NW 17 22 9 12 1018.1 - 0.0
14/09:50pm 13.5 9.1 6.5 62 3.5 WNW 19 26 10 14 1018.0 - 0.0
14/09:40pm 13.8 9.2 6.3 60 3.7 WNW 20 28 11 15 1018.2 - 0.0
14/09:30pm 13.9 9.8 6.1 59 3.9 W 17 20 9 11 1018.0 - 0.0
14/09:20pm 14.1 9.4 5.9 57 4.1 W 20 24 11 13 1018.0 - 0.0
14/09:10pm 13.9 9.8 6.2 59 3.8 WNW 17 22 9 12 1017.7 - 0.0
14/09:00pm 13.9 10.2 6.4 60 3.8 WNW 15 20 8 11 1017.7 - 0.0
14/08:50pm 14.0 9.5 6.3 60 3.8 W 19 22 10 12 1017.7 - 0.0
14/08:40pm 14.3 8.5 6.2 58 4.0 W 26 30 14 16 1017.6 - 0.0
14/08:30pm 14.2 9.5 6.2 58 4.0 W 20 28 11 15 1017.5 - 0.0
14/08:20pm 14.5 8.3 6.3 58 4.1 W 28 37 15 20 1017.5 - 0.0
14/08:10pm 14.3 9.2 6.2 58 4.0 W 22 28 12 15 1017.3 - 0.0
14/08:00pm 14.6 8.7 6.0 56 4.3 W 26 32 14 17 1017.4 - 0.0
14/07:50pm 14.7 8.4 5.6 54 4.5 W 28 39 15 21 1017.3 - 0.0
14/07:40pm 14.7 8.3 5.3 53 4.6 W 28 35 15 19 1017.2 - 0.0
14/07:30pm 14.7 9.3 4.5 50 4.9 W 22 30 12 16 1017.2 - 0.0
14/07:20pm 14.9 9.1 4.3 49 5.1 W 24 28 13 15 1017.2 - 0.0
14/07:10pm 15.0 8.7 4.0 47 5.3 W 26 30 14 16 1017.1 - 0.0
14/07:00pm 15.0 9.5 3.8 47 5.4 W 22 26 12 14 1016.9 - 0.0
14/06:50pm 15.0 9.4 3.6 46 5.4 W 22 26 12 14 1016.9 - 0.0
14/06:40pm 14.9 9.7 3.6 46 5.4 WNW 20 24 11 13 1016.8 - 0.0
14/06:30pm 14.9 9.7 3.5 46 5.4 WNW 20 22 11 12 1016.6 - 0.0
14/06:20pm 14.8 9.8 3.7 47 5.3 WNW 19 20 10 11 1016.3 - 0.0
14/06:10pm 14.8 10.3 4.0 48 5.2 WNW 17 19 9 10 1016.2 - 0.0
14/06:00pm 15.1 10.0 4.0 47 5.3 WNW 20 22 11 12 1016.1 - 0.0
14/05:50pm 15.1 10.2 4.2 48 5.3 WNW 19 19 10 10 1016.1 - 0.0
14/05:40pm 15.5 10.6 4.1 46 5.5 NW 19 22 10 12 1016.0 - 0.0
14/05:30pm 15.8 10.7 4.1 45 5.7 NW 20 22 11 12 1015.9 - 0.0
14/05:20pm 16.0 10.5 4.2 45 5.7 NW 22 24 12 13 1015.8 - 0.0
14/05:00pm 16.4 10.6 4.2 44 5.9 NW 24 28 13 15 1015.7 - 0.0
14/04:50pm 16.4 10.2 4.1 44 6.0 NW 26 35 14 19 1015.6 - 0.0
14/04:40pm 16.5 10.3 4.4 44 5.9 NW 26 30 14 16 1015.6 - 0.0
14/04:30pm 16.4 10.2 4.3 44 5.9 NW 26 28 14 15 1015.5 - 0.0
14/04:20pm 16.2 10.8 4.3 45 5.8 NW 22 26 12 14 1015.5 - 0.0
14/04:10pm 16.0 9.0 4.3 45 5.7 NW 30 35 16 19 1015.5 - 0.0
14/04:00pm 16.0 8.6 3.8 44 5.9 NW 32 41 17 22 1015.5 - 0.0
14/03:50pm 16.1 8.6 3.7 43 6.0 WNW 32 35 17 19 1015.5 - 0.0
14/03:40pm 15.8 8.2 3.7 44 5.8 WNW 33 39 18 21 1015.9 - 0.0
14/03:30pm 15.9 7.9 3.6 44 5.9 NW 35 39 19 21 1015.6 - 0.0
14/03:20pm 16.4 8.9 3.6 42 6.2 WNW 32 35 17 19 1015.6 - 0.0
14/03:10pm 16.5 9.8 3.6 42 6.2 WNW 28 32 15 17 1015.6 - 0.0
14/03:00pm 16.0 7.1 3.0 41 6.2 WNW 39 44 21 24 1015.6 - 0.0
14/02:50pm 16.6 8.5 3.2 40 6.4 WNW 35 39 19 21 1015.5 - 0.0
14/02:40pm 16.7 8.9 2.9 39 6.6 WNW 33 43 18 23 1015.4 - 0.0
14/02:30pm 16.4 8.6 3.1 41 6.3 WNW 33 37 18 20 1015.6 - 0.0
14/02:20pm 16.2 8.4 2.8 40 6.3 WNW 33 37 18 20 1015.4 - 0.0
14/02:10pm 16.1 7.1 2.4 39 6.4 NW 39 43 21 23 1015.3 - 0.0
14/02:00pm 15.7 7.1 2.5 41 6.2 NW 37 44 20 24 1015.5 - 0.0
14/01:50pm 15.5 7.0 3.0 43 5.9 NW 37 44 20 24 1015.5 - 0.0
14/01:40pm 15.5 7.6 2.2 40 6.2 NW 33 46 18 25 1015.4 - 0.0
14/01:30pm 15.5 8.0 3.3 44 5.8 WNW 32 33 17 18 1015.8 - 0.0
14/01:20pm 15.3 6.7 2.8 43 5.9 NW 37 41 20 22 1015.7 - 0.0
14/01:10pm 15.4 7.3 3.2 44 5.8 NW 35 41 19 22 1015.8 - 0.0
14/01:00pm 15.4 7.2 2.6 42 6.0 NW 35 44 19 24 1016.2 - 0.0
14/12:50pm 15.7 7.6 3.0 42 6.0 NW 35 43 19 23 1016.2 - 0.0
14/12:40pm 15.7 7.9 3.0 42 6.0 WNW 33 46 18 25 1016.4 - 0.0
14/12:30pm 15.6 5.6 2.0 40 6.3 WNW 44 50 24 27 1016.5 - 0.0
14/12:20pm 15.9 7.6 2.4 40 6.3 WNW 35 50 19 27 1016.4 - 0.0
14/12:10pm 16.0 8.2 2.8 41 6.2 WNW 33 43 18 23 1016.6 - 0.0
14/12:00pm 16.0 8.2 2.8 41 6.2 WNW 33 39 18 21 1016.8 - 0.0
14/11:50am 16.1 7.5 2.7 40 6.3 WNW 37 44 20 24 1016.9 - 0.0
14/11:40am 16.1 7.8 2.4 39 6.4 NW 35 39 19 21 1016.8 - 0.0
14/11:30am 16.0 8.3 3.3 42 6.1 WNW 33 39 18 21 1017.1 - 0.0
14/11:20am 15.8 8.2 3.0 42 6.1 WNW 32 39 17 21 1017.4 - 0.0
14/11:10am 15.5 7.9 3.8 45 5.6 WNW 33 41 18 22 1017.1 - 0.0
14/11:00am 15.3 6.0 3.1 44 5.8 WNW 41 50 22 27 1017.3 - 0.0
14/10:50am 15.5 6.6 3.0 43 5.9 WNW 39 44 21 24 1017.1 - 0.0
14/10:40am 15.7 6.4 2.7 41 6.1 NW 41 46 22 25 1017.1 - 0.0
14/10:30am 15.7 6.3 2.5 41 6.2 NW 41 46 22 25 1017.0 - 0.0
14/10:20am 15.8 5.4 1.9 39 6.4 NW 46 54 25 29 1017.2 - 0.0
14/10:10am 15.5 3.5 1.7 39 6.3 WNW 54 59 29 32 1016.9 - 0.0
14/10:00am 15.6 5.1 1.6 38 6.4 WNW 46 52 25 28 1017.1 - 0.0
14/09:50am 15.6 7.3 2.3 40 6.2 NW 35 48 19 26 1017.3 - 0.0
14/09:40am 15.1 6.4 2.3 42 5.9 NW 37 43 20 23 1017.2 - 0.0
14/09:30am 15.0 6.4 2.4 42 5.8 NW 37 48 20 26 1017.4 - 0.0
14/09:20am 14.7 4.7 2.1 42 5.8 NW 44 52 24 28 1017.5 - 0.0
14/09:10am 15.1 6.8 2.2 41 6.0 NW 35 43 19 23 1017.2 - 0.0
14/09:00am 14.7 6.4 2.2 43 5.8 NW 35 41 19 22 1017.5 - 0.0
14/08:50am 14.4 6.1 2.1 43 5.6 NW 35 43 19 23 1017.4 - 0.0
14/08:40am 14.0 6.0 1.7 43 5.6 NW 33 41 18 22 1017.1 - 0.0
14/08:30am 13.3 6.0 2.5 48 5.0 NW 30 33 16 18 1017.1 - 0.0
14/08:20am 12.5 5.6 2.4 50 4.6 NW 28 30 15 16 1017.1 - 0.0
14/07:30am 12.1 4.7 2.0 50 4.5 NW 30 33 16 18 1016.9 - 0.0
14/07:20am 11.6 4.2 2.0 51 4.3 NW 30 33 16 18 1016.6 - 0.0
14/07:10am 11.5 4.1 1.8 51 4.3 NW 30 32 16 17 1016.8 - 0.0
14/07:00am 11.5 4.5 2.0 52 4.2 NW 28 32 15 17 1016.7 - 0.0
14/06:50am 11.4 4.0 1.6 51 4.3 NW 30 35 16 19 1016.9 - 0.0
14/06:40am 11.3 3.4 1.3 50 4.4 NW 32 35 17 19 1016.8 - 0.0
14/06:30am 10.8 3.4 1.9 54 3.9 NW 30 32 16 17 1016.7 - 0.0
14/06:20am 10.6 3.7 2.3 56 3.7 NW 28 30 15 16 1016.7 - 0.0
14/06:10am 10.4 3.5 2.4 57 3.6 NW 28 30 15 16 1016.7 - 0.0
14/06:00am 10.8 3.5 2.4 56 3.8 NW 30 32 16 17 1016.7 - 0.0
14/05:50am 11.3 3.9 2.0 53 4.1 NW 30 33 16 18 1016.8 - 0.0
14/05:40am 11.5 3.7 1.5 50 4.4 NW 32 33 17 18 1016.7 - 0.0
14/05:30am 11.2 3.4 1.6 51 4.2 NW 32 33 17 18 1016.7 - 0.0
14/05:20am 11.3 3.6 2.1 53 4.1 NW 32 32 17 17 1016.7 - 0.0
14/05:10am 11.5 3.5 1.6 50 4.4 NW 33 35 18 19 1016.6 - 0.0
14/05:00am 11.6 3.8 1.7 50 4.4 NW 32 33 17 18 1016.7 - 0.0
14/04:50am 11.1 4.0 1.4 51 4.3 NW 28 30 15 16 1016.9 - 0.0
14/04:40am 10.9 3.5 1.8 53 4.0 WNW 30 30 16 16 1016.9 - 0.0
14/04:30am 11.1 4.1 2.2 54 4.0 WNW 28 32 15 17 1016.7 - 0.0
14/04:20am 11.4 3.6 1.7 51 4.3 NW 32 33 17 18 1016.7 - 0.0
14/04:10am 11.7 3.7 1.7 50 4.4 NW 33 35 18 19 1016.7 - 0.0
14/04:00am 11.5 3.5 1.7 51 4.4 WNW 33 35 18 19 1016.7 - 0.0
14/03:50am 11.1 3.3 2.0 53 4.1 WNW 32 33 17 18 1016.9 - 0.0
14/03:40am 11.1 3.2 2.4 55 3.9 WNW 33 33 18 18 1016.9 - 0.0
14/03:30am 11.0 3.3 2.5 56 3.8 WNW 32 33 17 18 1016.8 - 0.0
14/03:20am 11.1 3.8 2.2 54 4.0 WNW 30 32 16 17 1016.9 - 0.0
14/03:10am 11.4 4.0 2.1 53 4.2 NW 30 32 16 17 1016.9 - 0.0
14/03:00am 11.0 4.0 2.1 54 4.0 WNW 28 30 15 16 1017.0 - 0.0
14/02:50am 10.9 3.7 2.8 57 3.7 WNW 30 32 16 17 1017.2 - 0.0
14/02:40am 11.3 3.7 2.9 56 3.8 WNW 32 32 17 17 1017.4 - 0.0
14/02:30am 10.6 3.3 2.6 57 3.6 WNW 30 32 16 17 1017.2 - 0.0
14/02:20am 10.0 3.3 3.8 65 2.8 WNW 28 30 15 16 1017.5 - 0.0
14/02:10am 10.1 3.8 3.9 65 2.9 WNW 26 28 14 15 1017.6 - 0.0
14/02:00am 10.2 3.9 4.0 65 2.9 WNW 26 26 14 14 1017.6 - 0.0
14/01:50am 10.1 3.9 4.1 66 2.8 WNW 26 28 14 15 1017.8 - 0.0
14/01:40am 9.6 3.8 4.4 70 2.4 WNW 24 24 13 13 1017.9 - 0.0
14/01:30am 9.5 3.7 4.6 71 2.3 NW 24 24 13 13 1017.9 - 0.0
14/01:20am 9.6 3.9 4.8 72 2.2 NW 24 26 13 14 1018.0 - 0.0
14/01:10am 10.0 4.2 4.5 68 2.6 NW 24 26 13 14 1018.2 - 0.0
14/01:00am 10.3 4.5 4.2 66 2.8 NW 24 24 13 13 1018.1 - 0.0
14/12:50am 10.4 4.5 4.0 64 3.0 WNW 24 24 13 13 1018.2 - 0.0
14/12:40am 10.6 4.7 4.0 63 3.1 WNW 24 26 13 14 1018.2 - 0.0
14/12:30am 11.1 5.5 3.6 60 3.5 WNW 22 24 12 13 1018.4 - 0.0
14/12:20am 11.7 6.1 3.4 56 3.8 WNW 22 26 12 14 1018.6 - 0.0
14/12:10am 12.1 5.6 2.5 52 4.4 WNW 26 28 14 15 1018.7 - 0.0
14/12:00am 12.7 6.1 2.3 49 4.7 WNW 26 28 14 15 1018.9 - 0.0
 
Date/Time
EST
Temp
°C
App
Temp
°C
Dew
Point
°C
Rel
Hum
%
Delta-T
°C
Wind Press
QNH
hPa
Press
MSL
hPa
Rain since
9am
mm
Dir  Spd
km/h
Gust
km/h
Spd
kts
Gust
kts
13/11:50pm 13.1 6.1 2.0 47 5.0 WNW 28 32 15 17 1019.0 - 0.0
13/11:40pm 12.9 5.9 2.1 48 4.9 WNW 28 30 15 16 1019.0 - 0.0

Latest Capital City Observations: Canberra | Sydney | Melbourne | Brisbane | Adelaide | Perth | Hobart | Darwin

Other formats

Comma delimited format used in spreadsheet applications
http://www.bom.gov.au/fwo/IDN60903/IDN60903.99763.axf

JavaScript Object Notation format (JSON) in row-major order
http://www.bom.gov.au/fwo/IDN60903/IDN60903.99763.json

Data quality

Most of these data are generated automatically and are frequently updated. Quality checks on data are not normally performed. It is possible for incorrect values to appear. Refer to information at About Latest Weather Observations and please check the disclaimer before using these data.